Time;durP1;ratioP1;P1;durP2;ratioP2;P2;SDS_P1;SDS_P2;PMS_P1;PMS_P2;Temp;Humidity;BMP_temperature;BMP_pressure;BME280_temperature;BME280_humidity;BME280_pressure;Samples;Min_cycle;Max_cycle;Signal;HPM_P1;HPM_P2
2023/07/23 00:01:05;;;;;;;8.98;5.07;;;;;;;15.87;100.00;100737.28;5090257;28;20044;-57
2023/07/23 00:03:32;;;;;;;7.93;4.93;;;;;;;15.88;100.00;100733.66;5090431;28;20044;-57
2023/07/23 00:05:58;;;;;;;8.57;5.28;;;;;;;15.88;100.00;100734.50;5088519;28;20638;-57
2023/07/23 00:08:25;;;;;;;7.75;5.30;;;;;;;15.89;100.00;100730.91;5090051;28;20052;-57
2023/07/23 00:10:57;;;;;;;7.47;4.85;;;;;;;15.91;100.00;100723.63;5089900;28;20063;-57
2023/07/23 00:13:24;;;;;;;8.80;5.50;;;;;;;15.94;100.00;100720.75;5090212;28;20127;-57
2023/07/23 00:15:51;;;;;;;9.00;4.43;;;;;;;15.94;100.00;100723.44;5102721;28;20047;-57
2023/07/23 00:18:18;;;;;;;7.15;4.72;;;;;;;15.99;100.00;100711.59;5099376;28;20441;-57
2023/07/23 00:20:45;;;;;;;8.10;5.30;;;;;;;15.96;100.00;100710.84;5086611;28;20056;-57
2023/07/23 00:23:12;;;;;;;7.90;5.10;;;;;;;15.97;100.00;100711.72;5090208;28;20449;-58
2023/07/23 00:25:38;;;;;;;8.15;5.55;;;;;;;16.01;100.00;100696.34;5087426;28;20093;-57
2023/07/23 00:28:06;;;;;;;9.02;5.10;;;;;;;16.05;100.00;100703.16;5090013;28;20231;-57
2023/07/23 00:30:33;;;;;;;8.18;4.68;;;;;;;16.05;100.00;100697.84;5085625;28;20048;-57
2023/07/23 00:32:59;;;;;;;8.55;5.25;;;;;;;16.03;100.00;100695.28;5075405;28;20052;-57
2023/07/23 00:35:26;;;;;;;7.50;4.97;;;;;;;16.09;100.00;100688.69;5079187;28;20484;-57
2023/07/23 00:37:52;;;;;;;7.68;4.65;;;;;;;16.09;100.00;100694.00;5078055;28;20050;-58
2023/07/23 00:40:19;;;;;;;8.00;4.88;;;;;;;16.08;100.00;100692.28;5085912;28;20040;-57
2023/07/23 00:42:45;;;;;;;7.05;4.95;;;;;;;16.10;100.00;100687.69;5083653;28;20130;-57
2023/07/23 00:45:12;;;;;;;10.18;5.10;;;;;;;16.08;100.00;100681.63;5088233;28;20049;-57
2023/07/23 00:47:38;;;;;;;7.30;4.70;;;;;;;16.13;100.00;100695.50;5088698;28;20063;-57
2023/07/23 00:50:06;;;;;;;9.20;5.63;;;;;;;16.08;100.00;100686.97;5086661;28;20482;-57
2023/07/23 00:52:32;;;;;;;6.20;4.43;;;;;;;16.08;100.00;100689.63;5084237;28;20550;-57
2023/07/23 00:54:59;;;;;;;7.13;4.95;;;;;;;16.10;100.00;100679.69;5082035;28;20045;-57
2023/07/23 00:57:26;;;;;;;9.07;5.03;;;;;;;16.10;100.00;100675.25;5085235;28;20052;-57
2023/07/23 00:59:53;;;;;;;11.48;5.15;;;;;;;16.20;100.00;100678.13;5075444;28;20054;-57
2023/07/23 01:02:19;;;;;;;9.13;4.53;;;;;;;16.15;100.00;100677.59;5088411;28;20106;-57
2023/07/23 01:04:46;;;;;;;8.82;4.60;;;;;;;16.14;100.00;100667.88;5087548;28;20604;-57
2023/07/23 01:07:13;;;;;;;7.55;5.00;;;;;;;16.17;100.00;100664.13;5073387;28;20071;-57
2023/07/23 01:09:39;;;;;;;8.02;4.95;;;;;;;16.16;100.00;100663.28;5073311;28;20102;-58
2023/07/23 01:12:07;;;;;;;8.30;4.80;;;;;;;16.18;100.00;100661.34;5075601;28;20518;-58
2023/07/23 01:14:34;;;;;;;9.32;4.80;;;;;;;16.21;100.00;100661.13;5083978;28;20127;-58
2023/07/23 01:17:01;;;;;;;6.53;4.57;;;;;;;16.25;100.00;100662.63;5076262;28;20056;-58
2023/07/23 01:19:28;;;;;;;7.75;4.70;;;;;;;16.31;100.00;100658.66;5075034;28;20036;-58
2023/07/23 01:21:59;;;;;;;8.63;4.80;;;;;;;16.41;100.00;100661.53;5087745;28;20472;-58
2023/07/23 01:24:26;;;;;;;10.88;5.85;;;;;;;16.38;100.00;100661.75;5087915;28;20127;-58
2023/07/23 01:26:53;;;;;;;10.50;4.70;;;;;;;16.39;100.00;100658.13;5069797;28;20767;-57
2023/07/23 01:29:19;;;;;;;8.50;4.65;;;;;;;16.37;100.00;100660.06;5085891;28;20146;-58
2023/07/23 01:31:46;;;;;;;8.55;5.25;;;;;;;16.43;100.00;100664.94;5088730;28;20146;-57
2023/07/23 01:34:13;;;;;;;10.05;4.50;;;;;;;16.55;100.00;100669.41;5088504;28;20071;-58
2023/07/23 01:36:40;;;;;;;8.30;5.00;;;;;;;16.51;100.00;100675.94;5107794;28;20047;-58
2023/07/23 01:39:07;;;;;;;10.20;4.53;;;;;;;16.48;100.00;100673.50;5089578;28;20048;-57
2023/07/23 01:41:34;;;;;;;11.90;4.97;;;;;;;16.49;100.00;100680.50;5103923;28;20131;-58
2023/07/23 01:44:01;;;;;;;12.02;4.00;;;;;;;16.45;100.00;100706.56;5088824;28;20562;-57
2023/07/23 01:46:27;;;;;;;8.60;5.13;;;;;;;16.36;100.00;100706.34;5088809;28;20055;-58
2023/07/23 01:48:54;;;;;;;7.90;4.53;;;;;;;16.25;100.00;100715.97;5088364;28;20044;-58
2023/07/23 01:51:20;;;;;;;11.98;5.35;;;;;;;16.23;100.00;100712.56;5088573;28;20063;-58
2023/07/23 01:53:47;;;;;;;11.77;4.85;;;;;;;16.14;100.00;100724.72;5088347;28;20044;-58
2023/07/23 01:56:13;;;;;;;7.60;5.10;;;;;;;16.13;100.00;100727.47;5088117;28;20131;-58
2023/07/23 01:58:40;;;;;;;8.85;5.43;;;;;;;16.17;100.00;100737.00;5086933;28;20044;-58
2023/07/23 02:01:06;;;;;;;9.65;5.22;;;;;;;16.14;100.00;100721.19;5087525;28;20044;-58
2023/07/23 02:03:33;;;;;;;9.05;4.97;;;;;;;16.11;100.00;100729.41;5087092;28;20054;-58
2023/07/23 02:06:01;;;;;;;8.00;5.15;;;;;;;16.02;100.00;100725.59;5088101;28;20503;-58
2023/07/23 02:08:28;;;;;;;12.02;6.07;;;;;;;15.94;100.00;100731.44;5088374;28;20440;-58
2023/07/23 02:11:02;;;;;;;13.27;6.15;;;;;;;15.84;100.00;100737.47;5088510;28;20109;-58
2023/07/23 02:13:29;;;;;;;9.38;5.57;;;;;;;15.68;100.00;100727.00;5089102;28;20056;-59
2023/07/23 02:15:55;;;;;;;10.13;5.50;;;;;;;15.54;100.00;100727.91;5087860;28;20064;-58
2023/07/23 02:18:22;;;;;;;10.05;5.63;;;;;;;15.31;100.00;100729.44;5087822;28;20139;-59
2023/07/23 02:20:49;;;;;;;7.80;5.22;;;;;;;15.13;100.00;100726.16;5087699;28;20123;-59
2023/07/23 02:23:19;;;;;;;9.27;6.30;;;;;;;14.97;100.00;100731.63;5087274;28;20079;-59
2023/07/23 02:25:49;;;;;;;8.98;6.22;;;;;;;14.89;100.00;100728.59;5087449;28;20095;-59
2023/07/23 02:28:16;;;;;;;12.20;5.45;;;;;;;14.82;100.00;100734.31;5087545;28;20047;-59
2023/07/23 02:30:42;;;;;;;9.13;6.10;;;;;;;14.96;100.00;100735.25;5087821;28;20488;-59
2023/07/23 02:33:09;;;;;;;7.72;5.78;;;;;;;14.85;100.00;100735.94;5087661;28;20476;-59
2023/07/23 02:35:36;;;;;;;10.20;6.28;;;;;;;14.89;100.00;100739.25;5088569;28;20062;-59
2023/07/23 02:38:03;;;;;;;13.00;6.68;;;;;;;14.79;100.00;100739.81;5087547;28;20056;-59
2023/07/23 02:40:32;;;;;;;10.52;5.88;;;;;;;14.77;100.00;100733.75;5086600;28;20051;-59
2023/07/23 02:43:00;;;;;;;11.88;6.80;;;;;;;14.80;100.00;100730.06;5083584;28;20639;-59
2023/07/23 02:45:29;;;;;;;10.60;6.60;;;;;;;14.76;100.00;100737.38;5086933;28;20483;-59
2023/07/23 02:47:55;;;;;;;9.52;6.78;;;;;;;14.83;100.00;100740.50;5087045;28;20091;-59
2023/07/23 02:50:22;;;;;;;8.60;6.43;;;;;;;14.80;100.00;100757.50;5086292;28;20058;-59
2023/07/23 02:52:49;;;;;;;15.23;6.90;;;;;;;14.82;100.00;100762.75;5086808;28;20094;-59
2023/07/23 02:55:16;;;;;;;9.98;5.63;;;;;;;14.92;100.00;100760.34;5086611;28;20062;-59
2023/07/23 02:57:42;;;;;;;10.13;6.90;;;;;;;15.01;100.00;100767.75;5087058;28;20618;-59
2023/07/23 03:00:09;;;;;;;10.23;6.18;;;;;;;14.97;100.00;100768.88;5086887;28;20411;-59
2023/07/23 03:02:36;;;;;;;11.85;6.40;;;;;;;14.96;100.00;100765.38;5071476;28;20044;-59
2023/07/23 03:05:03;;;;;;;11.05;7.00;;;;;;;14.93;100.00;100778.03;5085568;28;20066;-59
2023/07/23 03:07:34;;;;;;;10.65;6.65;;;;;;;14.85;100.00;100779.34;5086625;28;20518;-58
2023/07/23 03:10:00;;;;;;;;;;;;;;;14.76;100.00;100774.63;5086882;28;20127;-58
2023/07/23 03:12:27;;;;;;;13.13;6.82;;;;;;;14.74;100.00;100773.84;5086984;28;20336;-58
2023/07/23 03:14:53;;;;;;;12.05;7.47;;;;;;;14.63;100.00;100781.66;5086572;28;20043;-58
2023/07/23 03:17:20;;;;;;;13.63;7.63;;;;;;;14.61;100.00;100786.22;5085402;28;20140;-58
2023/07/23 03:19:47;;;;;;;11.05;6.68;;;;;;;14.57;100.00;100787.34;5084661;28;20040;-58
2023/07/23 03:22:13;;;;;;;12.45;7.85;;;;;;;14.60;100.00;100788.03;5084532;28;20040;-58
2023/07/23 03:24:40;;;;;;;12.45;7.65;;;;;;;14.62;100.00;100788.78;5077470;28;20190;-58
2023/07/23 03:27:06;;;;;;;16.15;8.20;;;;;;;14.57;100.00;100784.69;5086347;28;20080;-58
2023/07/23 03:29:33;;;;;;;11.43;7.28;;;;;;;14.58;100.00;100789.91;5085588;28;20072;-58
2023/07/23 03:31:59;;;;;;;12.18;7.38;;;;;;;14.53;100.00;100791.97;5097551;28;20047;-58
2023/07/23 03:34:26;;;;;;;18.65;7.35;;;;;;;14.54;100.00;100795.50;5087106;28;20055;-59
2023/07/23 03:36:52;;;;;;;11.50;7.55;;;;;;;14.54;100.00;100792.84;5091082;28;20048;-58
2023/07/23 03:39:19;;;;;;;14.27;7.65;;;;;;;14.54;100.00;100788.38;5088741;28;20228;-58
2023/07/23 03:41:46;;;;;;;9.80;6.88;;;;;;;14.56;100.00;100796.25;5087456;28;20083;-58
2023/07/23 03:44:13;;;;;;;12.80;7.70;;;;;;;14.56;100.00;100797.09;5087165;28;20605;-58
2023/07/23 03:46:44;;;;;;;14.85;7.15;;;;;;;14.54;100.00;100799.00;5086566;28;20040;-58
2023/07/23 03:49:11;;;;;;;12.93;7.82;;;;;;;14.54;100.00;100793.69;5086848;28;20521;-58
2023/07/23 03:51:38;;;;;;;13.95;7.20;;;;;;;14.52;100.00;100797.41;5087336;28;20602;-57
2023/07/23 03:54:04;;;;;;;10.65;7.53;;;;;;;14.49;100.00;100793.13;5086795;28;20502;-58
2023/07/23 03:56:31;;;;;;;11.05;7.10;;;;;;;14.53;100.00;100796.44;5086745;28;20075;-58
2023/07/23 03:58:58;;;;;;;16.05;6.70;;;;;;;14.49;100.00;100795.78;5089531;28;20062;-58
2023/07/23 04:01:24;;;;;;;12.80;7.88;;;;;;;14.52;100.00;100794.75;5088460;28;20555;-58
2023/07/23 04:03:51;;;;;;;16.33;8.60;;;;;;;14.56;100.00;100798.91;5086845;28;20063;-58
2023/07/23 04:06:17;;;;;;;11.82;7.97;;;;;;;14.59;100.00;100796.06;5085002;28;20071;-58
2023/07/23 04:08:44;;;;;;;12.88;8.40;;;;;;;14.59;100.00;100788.97;5086003;28;20113;-58
2023/07/23 04:11:10;;;;;;;13.88;6.90;;;;;;;14.58;100.00;100783.72;5089102;28;20116;-58
2023/07/23 04:13:37;;;;;;;13.70;7.72;;;;;;;14.56;100.00;100796.25;5085847;28;20052;-58
2023/07/23 04:16:09;;;;;;;10.95;7.63;;;;;;;14.56;100.00;100790.94;5085847;28;20051;-58
2023/07/23 04:18:50;;;;;;;11.90;7.53;;;;;;;14.55;100.00;100790.09;5084856;28;20364;-58
2023/07/23 04:21:24;;;;;;;17.40;8.70;;;;;;;14.61;100.00;100794.19;5086499;28;20535;-58
2023/07/23 04:23:52;;;;;;;11.32;7.97;;;;;;;14.59;100.00;100796.94;5086840;28;20044;-58
2023/07/23 04:26:19;;;;;;;11.07;7.80;;;;;;;14.58;100.00;100799.66;5086229;28;20056;-58
2023/07/23 04:28:45;;;;;;;11.68;7.53;;;;;;;14.57;100.00;100792.66;5086764;28;20249;-58
2023/07/23 04:31:12;;;;;;;10.00;7.32;;;;;;;14.53;100.00;100789.31;5090614;28;20139;-58
2023/07/23 04:33:39;;;;;;;13.60;10.15;;;;;;;14.55;100.00;100789.22;5112006;28;20079;-58
2023/07/23 04:36:07;;;;;;;11.32;7.95;;;;;;;14.61;100.00;100794.19;5092934;28;20052;-58
2023/07/23 04:38:35;;;;;;;11.45;7.10;;;;;;;14.67;100.00;100783.19;5086511;28;20109;-58
2023/07/23 04:41:01;;;;;;;14.27;8.93;;;;;;;14.74;100.00;100789.81;5088160;28;20106;-58
2023/07/23 04:43:28;;;;;;;12.52;7.18;;;;;;;14.74;100.00;100791.63;5089774;28;20079;-57
2023/07/23 04:45:55;;;;;;;13.65;8.48;;;;;;;14.80;100.00;100794.75;5089987;28;20507;-58
2023/07/23 04:48:22;;;;;;;12.75;8.57;;;;;;;14.83;100.00;100797.22;5089352;28;20056;-58
2023/07/23 04:50:58;;;;;;;17.17;8.35;;;;;;;14.88;100.00;100796.94;5089481;28;20356;-58
2023/07/23 04:53:26;;;;;;;12.95;8.02;;;;;;;14.89;100.00;100793.31;5088631;28;20101;-58
2023/07/23 04:55:57;;;;;;;14.18;8.70;;;;;;;14.92;100.00;100786.97;5088097;28;20547;-57
2023/07/23 04:58:24;;;;;;;;;;;;;;;14.93;100.00;100781.53;5089473;28;20139;-58
2023/07/23 05:00:52;;;;;;;13.48;8.15;;;;;;;14.93;100.00;100776.22;5089075;28;20390;-58
2023/07/23 05:03:19;;;;;;;11.43;7.45;;;;;;;14.99;100.00;100782.94;5087486;28;20133;-58
2023/07/23 05:05:51;;;;;;;11.05;7.30;;;;;;;15.10;100.00;100784.94;5087091;28;20067;-58
2023/07/23 05:08:19;;;;;;;11.18;7.25;;;;;;;15.15;100.00;100786.38;5088173;28;20062;-58
2023/07/23 05:10:46;;;;;;;10.85;7.85;;;;;;;15.19;100.00;100785.19;5089756;28;20068;-58
2023/07/23 05:13:14;;;;;;;10.85;6.95;;;;;;;15.21;100.00;100775.28;5088374;28;20062;-58
2023/07/23 05:15:41;;;;;;;13.90;7.50;;;;;;;15.19;100.00;100773.69;5088310;28;20143;-58
2023/07/23 05:18:08;;;;;;;18.75;8.23;;;;;;;15.26;100.00;100790.13;5088496;28;20131;-58
2023/07/23 05:20:35;;;;;;;12.18;7.47;;;;;;;15.34;100.00;100777.19;5087649;28;20055;-58
2023/07/23 05:23:01;;;;;;;12.98;7.90;;;;;;;15.45;100.00;100782.66;5088524;28;20079;-58
2023/07/23 05:25:28;;;;;;;13.65;6.85;;;;;;;15.43;100.00;100776.56;5087590;28;20143;-58
2023/07/23 05:27:54;;;;;;;13.82;7.88;;;;;;;15.52;100.00;100783.94;5088414;28;20165;-58
2023/07/23 05:30:21;;;;;;;13.30;6.55;;;;;;;15.58;100.00;100775.56;5082891;28;20051;-58
2023/07/23 05:32:48;;;;;;;10.88;7.88;;;;;;;15.67;100.00;100773.25;5088463;28;20051;-58
2023/07/23 05:35:15;;;;;;;9.95;7.07;;;;;;;15.79;100.00;100772.47;5087577;28;20227;-58
2023/07/23 05:37:41;;;;;;;11.32;8.10;;;;;;;15.90;100.00;100774.38;5086886;28;20137;-58
2023/07/23 05:40:08;;;;;;;10.90;8.05;;;;;;;15.86;100.00;100760.41;5086398;28;20040;-58
2023/07/23 05:42:35;;;;;;;13.25;7.07;;;;;;;15.89;100.00;100767.34;5083672;28;20480;-58
2023/07/23 05:45:03;;;;;;;12.43;7.80;;;;;;;15.86;100.00;100771.06;5087475;28;20048;-58
2023/07/23 05:47:29;;;;;;;14.00;7.30;;;;;;;15.91;100.00;100758.28;5079105;28;20411;-57
2023/07/23 05:49:56;;;;;;;13.23;7.90;;;;;;;16.12;100.00;100753.31;5078720;28;20407;-57
2023/07/23 05:52:23;;;;;;;10.65;7.32;;;;;;;16.12;100.00;100752.47;5087282;28;20073;-57
2023/07/23 05:54:49;;;;;;;12.98;7.45;;;;;;;16.23;100.00;100744.56;5087628;28;20525;-57
2023/07/23 05:57:16;;;;;;;10.00;7.38;;;;;;;16.43;100.00;100744.97;5087103;28;20051;-57
2023/07/23 05:59:42;;;;;;;12.20;7.63;;;;;;;16.44;100.00;100731.53;5087744;28;20535;-58
2023/07/23 06:02:09;;;;;;;12.85;8.05;;;;;;;16.51;100.00;100737.31;5080125;28;20471;-57
2023/07/23 06:04:37;;;;;;;11.18;7.55;;;;;;;16.52;100.00;100737.16;5086928;28;20046;-58
2023/07/23 06:07:04;;;;;;;12.00;7.25;;;;;;;16.62;100.00;100724.03;5087339;28;20405;-57
2023/07/23 06:09:31;;;;;;;10.88;7.05;;;;;;;16.66;100.00;100717.50;5086655;28;20480;-57
2023/07/23 06:11:57;;;;;;;10.32;7.15;;;;;;;16.63;100.00;100719.56;5087172;28;20351;-58
2023/07/23 06:14:24;;;;;;;10.02;7.25;;;;;;;16.62;100.00;100713.34;5086410;28;20143;-58
2023/07/23 06:16:50;;;;;;;12.05;7.03;;;;;;;16.59;100.00;100723.41;5087366;28;20117;-57
2023/07/23 06:19:17;;;;;;;15.00;7.53;;;;;;;16.61;100.00;100738.34;5086700;28;20133;-58
2023/07/23 06:21:44;;;;;;;12.05;7.07;;;;;;;16.47;100.00;100735.78;5088185;28;20068;-58
2023/07/23 06:24:10;;;;;;;11.60;7.35;;;;;;;16.49;100.00;100731.19;5089795;28;20048;-58
2023/07/23 06:26:37;;;;;;;13.73;7.70;;;;;;;16.62;100.00;100740.03;5086980;28;20127;-58
2023/07/23 06:29:05;;;;;;;15.20;7.18;;;;;;;16.74;100.00;100727.66;5086043;28;20056;-58
2023/07/23 06:31:32;;;;;;;12.25;7.50;;;;;;;16.90;100.00;100727.41;5086629;28;20078;-58
2023/07/23 06:33:58;;;;;;;11.02;7.03;;;;;;;17.05;100.00;100726.31;5086685;28;20062;-58
2023/07/23 06:36:25;;;;;;;12.25;7.10;;;;;;;17.32;100.00;100711.00;5086491;28;20435;-58
2023/07/23 06:38:51;;;;;;;9.88;7.05;;;;;;;17.49;100.00;100707.06;5086379;28;20126;-58
2023/07/23 06:41:18;;;;;;;11.65;7.20;;;;;;;17.59;100.00;100700.91;5085502;28;20357;-57
2023/07/23 06:43:45;;;;;;;9.10;6.90;;;;;;;17.75;100.00;100703.28;5086499;28;20091;-57
2023/07/23 06:46:17;;;;;;;10.02;6.97;;;;;;;17.99;100.00;100699.69;5085680;28;20052;-57
2023/07/23 06:48:44;;;;;;;9.73;5.85;;;;;;;18.18;100.00;100693.78;5085876;28;20060;-57
2023/07/23 06:51:10;;;;;;;9.77;6.38;;;;;;;18.33;100.00;100697.91;5085496;28;20048;-57
2023/07/23 06:53:37;;;;;;;11.63;6.53;;;;;;;18.36;100.00;100691.47;5086249;28;20062;-58
2023/07/23 06:56:10;;;;;;;10.27;6.80;;;;;;;18.45;100.00;100674.66;5085754;28;20139;-57
2023/07/23 06:58:37;;;;;;;8.07;5.90;;;;;;;18.50;100.00;100672.50;5086030;28;20044;-58
2023/07/23 07:01:06;;;;;;;8.60;5.47;;;;;;;18.53;100.00;100677.56;5085552;28;20408;-57
2023/07/23 07:03:33;;;;;;;9.65;5.90;;;;;;;18.74;100.00;100684.84;5085761;28;20040;-57
2023/07/23 07:06:00;;;;;;;11.02;6.07;;;;;;;18.94;100.00;100685.09;5085847;28;20047;-57
2023/07/23 07:08:28;;;;;;;11.05;6.13;;;;;;;18.81;100.00;100674.50;5087579;28;20044;-57
2023/07/23 07:10:59;;;;;;;8.15;5.65;;;;;;;19.01;100.00;100675.56;5085671;28;20044;-57
2023/07/23 07:13:30;;;;;;;8.98;5.45;;;;;;;19.17;100.00;100670.63;5080564;28;20516;-57
2023/07/23 07:15:56;;;;;;;8.23;5.53;;;;;;;19.36;100.00;100663.75;5080991;28;20074;-57
2023/07/23 07:18:25;;;;;;;11.13;5.68;;;;;;;19.42;100.00;100671.28;5085636;28;20052;-57
2023/07/23 07:21:00;;;;;;;9.05;6.05;;;;;;;19.66;100.00;100670.16;5080994;28;20139;-58
2023/07/23 07:23:27;;;;;;;12.32;5.93;;;;;;;19.75;100.00;100674.75;5083365;28;20499;-57
2023/07/23 07:25:58;;;;;;;8.65;5.28;;;;;;;19.77;100.00;100672.81;5085871;28;20148;-57
2023/07/23 07:28:25;;;;;;;8.82;5.28;;;;;;;19.98;100.00;100667.44;5082307;28;20056;-57
2023/07/23 07:30:57;;;;;;;9.23;5.30;;;;;;;20.20;100.00;100671.75;5080970;28;20048;-57
2023/07/23 07:33:23;;;;;;;10.35;5.53;;;;;;;19.54;100.00;100667.56;5085596;28;20060;-58
2023/07/23 07:35:53;;;;;;;8.60;5.07;;;;;;;19.52;100.00;100664.16;5085457;28;20148;-58
2023/07/23 07:38:20;;;;;;;8.07;4.82;;;;;;;19.74;100.00;100673.03;5085662;28;20139;-57
2023/07/23 07:40:48;;;;;;;8.52;4.40;;;;;;;19.71;100.00;100667.94;5084986;28;20044;-57
2023/07/23 07:43:14;;;;;;;7.20;4.70;;;;;;;19.95;100.00;100660.50;5085104;28;20056;-58
2023/07/23 07:45:41;;;;;;;8.90;4.97;;;;;;;20.22;100.00;100656.41;5084767;28;20139;-58
2023/07/23 07:48:09;;;;;;;10.15;4.95;;;;;;;20.34;100.00;100644.56;5086107;28;20068;-58
2023/07/23 07:50:35;;;;;;;8.10;4.68;;;;;;;20.34;100.00;100638.34;5083879;28;20071;-58
2023/07/23 07:53:02;;;;;;;8.57;4.88;;;;;;;20.60;100.00;100633.34;5085925;28;20052;-58
2023/07/23 07:55:28;;;;;;;8.40;5.20;;;;;;;20.45;100.00;100629.34;5084689;28;20056;-59
2023/07/23 07:57:55;;;;;;;10.57;4.90;;;;;;;20.29;100.00;100630.72;5085221;28;20063;-58
2023/07/23 08:00:22;;;;;;;8.07;4.90;;;;;;;20.58;100.00;100629.97;5083020;28;20046;-57
2023/07/23 08:02:49;;;;;;;10.27;4.75;;;;;;;20.63;100.00;100633.09;5086062;28;20719;-57
2023/07/23 08:05:15;;;;;;;7.60;4.35;;;;;;;20.69;100.00;100629.84;5086759;28;20063;-57
2023/07/23 08:07:43;;;;;;;9.68;4.90;;;;;;;20.81;100.00;100624.34;5073160;28;20143;-57
2023/07/23 08:10:10;;;;;;;6.93;5.20;;;;;;;20.80;100.00;100623.50;5089548;28;20079;-57
2023/07/23 08:12:38;;;;;;;8.35;5.28;;;;;;;20.85;100.00;100625.78;5088627;28;20127;-57
2023/07/23 08:15:05;;;;;;;8.07;3.90;;;;;;;20.78;100.00;100624.66;5088503;28;20384;-57
2023/07/23 08:17:34;;;;;;;7.22;4.05;;;;;;;20.87;100.00;100623.78;5088425;28;20083;-57
2023/07/23 08:20:03;;;;;;;8.15;4.18;;;;;;;21.16;100.00;100612.22;5088764;28;20600;-57
2023/07/23 08:22:30;;;;;;;7.82;5.18;;;;;;;21.39;100.00;100621.66;5089086;28;20039;-57
2023/07/23 08:24:57;;;;;;;10.32;5.03;;;;;;;21.34;100.00;100615.88;5088402;28;20437;-56
2023/07/23 08:27:25;;;;;;;5.95;3.83;;;;;;;21.11;100.00;100619.88;5088645;28;20047;-57
2023/07/23 08:29:51;;;;;;;7.72;5.18;;;;;;;20.95;100.00;100615.88;5088697;28;20050;-57
2023/07/23 08:32:19;;;;;;;8.18;4.65;;;;;;;21.04;100.00;100612.34;5088106;28;20044;-57
2023/07/23 08:34:46;;;;;;;11.50;4.88;;;;;;;20.90;100.00;100618.16;5088149;28;20052;-57
2023/07/23 08:37:13;;;;;;;7.97;4.10;;;;;;;21.06;100.00;100613.06;5088821;28;20476;-57
2023/07/23 08:39:40;;;;;;;8.48;4.68;;;;;;;21.39;100.00;100618.97;5088334;28;20367;-57
2023/07/23 08:42:24;;;;;;;6.18;4.22;;;;;;;21.37;100.00;100620.97;5085961;28;20048;-57
2023/07/23 08:44:57;;;;;;;10.55;5.15;;;;;;;21.45;100.00;100615.72;5087793;28;20127;-57
2023/07/23 08:47:26;;;;;;;9.13;4.90;;;;;;;21.53;100.00;100603.41;5088993;28;20050;-57
2023/07/23 08:49:53;;;;;;;8.13;4.38;;;;;;;21.71;100.00;100601.69;5088070;28;20151;-58
2023/07/23 08:52:20;;;;;;;8.80;4.20;;;;;;;21.61;100.00;100595.47;5089016;28;20048;-57
2023/07/23 08:54:47;;;;;;;7.05;4.32;;;;;;;21.80;100.00;100600.78;5090163;28;20237;-57
2023/07/23 08:57:14;;;;;;;7.15;4.20;;;;;;;21.78;100.00;100602.78;5088351;28;20083;-57
2023/07/23 08:59:42;;;;;;;5.63;3.70;;;;;;;21.87;100.00;100594.81;5088271;28;20048;-57
2023/07/23 09:02:12;;;;;;;9.55;3.90;;;;;;;21.85;100.00;100591.44;5086577;28;20613;-57
2023/07/23 09:04:39;;;;;;;9.30;5.07;;;;;;;21.81;100.00;100596.28;5081912;28;20078;-58
2023/07/23 09:07:09;;;;;;;6.63;3.88;;;;;;;22.11;100.00;100597.84;5088488;28;20145;-58
2023/07/23 09:09:36;;;;;;;7.70;4.20;;;;;;;22.19;100.00;100591.72;5087154;28;20238;-58
2023/07/23 09:12:03;;;;;;;5.78;4.18;;;;;;;21.89;100.00;100599.06;5078088;28;20306;-58
2023/07/23 09:14:40;;;;;;;11.63;5.13;;;;;;;21.85;100.00;100591.44;5087763;28;20036;-58
2023/07/23 09:17:15;;;;;;;5.45;3.88;;;;;;;22.39;100.00;100592.47;5086556;28;20060;-58
2023/07/23 09:19:42;;;;;;;5.57;3.75;;;;;;;22.40;100.00;100591.50;5086849;28;20143;-58
2023/07/23 09:22:08;;;;;;;6.90;4.50;;;;;;;22.69;100.00;100590.44;5077331;28;20048;-58
2023/07/23 09:24:35;;;;;;;7.82;4.05;;;;;;;22.87;100.00;100585.91;5086660;28;20067;-58
2023/07/23 09:27:02;;;;;;;8.45;4.35;;;;;;;22.65;100.00;100589.06;5087319;28;20232;-58
2023/07/23 09:29:36;;;;;;;8.13;4.35;;;;;;;22.80;100.00;100576.75;5085562;28;20670;-58
2023/07/23 09:32:03;;;;;;;7.50;4.13;;;;;;;22.94;100.00;100574.53;5087948;28;20066;-57
2023/07/23 09:34:30;;;;;;;7.72;4.22;;;;;;;23.12;100.00;100570.00;5086960;28;20135;-58
2023/07/23 09:36:56;;;;;;;6.70;4.22;;;;;;;22.79;100.00;100574.19;5087316;28;20133;-57
2023/07/23 09:39:27;;;;;;;8.85;3.63;;;;;;;23.07;100.00;100566.91;5087078;28;20620;-57
2023/07/23 09:42:03;;;;;;;7.68;3.83;;;;;;;23.35;100.00;100559.53;5087554;28;20670;-57
2023/07/23 09:44:29;;;;;;;7.30;3.88;;;;;;;23.31;100.00;100562.72;5085662;28;20185;-57
2023/07/23 09:46:58;;;;;;;8.43;4.50;;;;;;;23.41;100.00;100567.00;5087694;28;20494;-58
2023/07/23 09:49:30;;;;;;;5.18;3.40;;;;;;;23.64;100.00;100564.63;5085750;28;20344;-57
2023/07/23 09:51:57;;;;;;;6.18;3.95;;;;;;;23.82;100.00;100555.63;5083967;28;20464;-57
2023/07/23 09:54:25;;;;;;;12.73;4.32;;;;;;;23.75;100.00;100565.34;5086273;28;20070;-57
2023/07/23 09:56:53;;;;;;;7.32;3.72;;;;;;;24.03;99.39;100554.38;5082195;28;20055;-57
2023/07/23 09:59:20;;;;;;;9.73;3.45;;;;;;;23.73;100.00;100556.56;5085655;28;20462;-57
2023/07/23 10:01:47;;;;;;;7.03;4.22;;;;;;;24.05;99.13;100539.72;5086663;28;20126;-57
2023/07/23 10:04:15;;;;;;;5.82;3.30;;;;;;;23.61;97.64;100543.34;5086546;28;20059;-58
2023/07/23 10:06:43;;;;;;;6.45;3.85;;;;;;;23.84;100.00;100534.72;5083871;28;20139;-58
2023/07/23 10:09:13;;;;;;;7.03;4.13;;;;;;;23.93;100.00;100541.88;5086767;28;20612;-57
2023/07/23 10:11:40;;;;;;;7.10;4.10;;;;;;;24.12;100.00;100523.72;5087870;28;20524;-58
2023/07/23 10:14:06;;;;;;;7.82;4.50;;;;;;;24.45;100.00;100524.63;5087153;28;20725;-58
2023/07/23 10:16:37;;;;;;;6.43;3.88;;;;;;;24.50;96.84;100522.25;5087567;28;20048;-57
2023/07/23 10:19:05;;;;;;;6.60;3.95;;;;;;;24.52;97.72;100513.97;5087483;28;20040;-58
2023/07/23 10:21:36;;;;;;;8.85;3.80;;;;;;;24.58;96.19;100518.75;5087194;28;20048;-58
2023/07/23 10:24:03;;;;;;;7.20;3.53;;;;;;;24.79;97.70;100512.03;5087426;28;20094;-58
2023/07/23 10:26:42;;;;;;;8.05;4.00;;;;;;;24.64;98.71;100510.00;5086870;28;20131;-57
2023/07/23 10:29:14;;;;;;;7.13;4.25;;;;;;;25.00;96.22;100506.94;5086267;28;20416;-58
2023/07/23 10:31:42;;;;;;;8.88;3.72;;;;;;;25.03;95.81;100503.06;5087338;28;20072;-59
2023/07/23 10:34:27;;;;;;;4.97;3.35;;;;;;;25.06;92.15;100500.88;5086681;28;20055;-58
2023/07/23 10:37:26;;;;;;;6.80;3.65;;;;;;;24.87;95.40;100485.00;5087259;28;20051;-57
2023/07/23 10:39:58;;;;;;;6.80;3.85;;;;;;;25.03;94.61;100490.41;5066813;28;20048;-57
2023/07/23 10:42:40;;;;;;;8.65;4.35;;;;;;;25.43;90.30;100464.28;5086995;28;20668;-58
2023/07/23 10:45:14;;;;;;;8.65;3.83;;;;;;;25.25;91.25;100471.75;5086249;28;20048;-57
2023/07/23 10:47:52;;;;;;;8.13;4.85;;;;;;;25.68;91.92;100458.81;5086737;28;20383;-58
2023/07/23 10:50:19;;;;;;;6.20;3.53;;;;;;;25.96;86.99;100469.16;5086558;28;20048;-58
2023/07/23 10:52:52;;;;;;;7.13;4.07;;;;;;;26.01;82.45;100459.50;5087093;28;20127;-58
2023/07/23 10:55:50;;;;;;;5.63;3.47;;;;;;;26.11;79.95;100445.72;5086155;28;20120;-58
2023/07/23 10:58:21;;;;;;;7.03;3.33;;;;;;;26.45;73.72;100449.91;5074001;28;20504;-57
2023/07/23 11:00:58;;;;;;;5.75;3.85;;;;;;;27.21;66.60;100451.75;5086738;28;20472;-58
2023/07/23 11:03:26;;;;;;;5.90;2.92;;;;;;;27.17;62.55;100440.44;5086390;28;20153;-58
2023/07/23 11:05:53;;;;;;;8.25;3.70;;;;;;;27.58;59.67;100429.13;5086243;28;20044;-57
2023/07/23 11:08:23;;;;;;;6.93;3.95;;;;;;;28.14;55.35;100425.00;5086805;28;20139;-57
2023/07/23 11:10:59;;;;;;;9.13;3.13;;;;;;;28.00;53.11;100414.00;5086701;28;20491;-58
2023/07/23 11:13:30;;;;;;;3.75;2.75;;;;;;;28.00;49.56;100414.00;5085945;28;20468;-60
2023/07/23 11:15:57;;;;;;;3.93;2.43;;;;;;;27.03;52.24;100423.13;5084758;28;20063;-58
2023/07/23 11:18:24;;;;;;;5.75;3.03;;;;;;;27.20;52.90;100418.38;5085613;28;20366;-59